createdAt,value
2018-05-27T00:00:17.720Z,0
2018-05-27T00:01:18.241Z,0
2018-05-27T00:02:18.226Z,0
2018-05-27T00:03:18.450Z,0
2018-05-27T00:04:18.470Z,0
2018-05-27T00:05:17.977Z,0
2018-05-27T00:06:18.419Z,0
2018-05-27T00:07:18.708Z,0
2018-05-27T00:08:18.415Z,0
2018-05-27T00:09:18.196Z,0
2018-05-27T00:10:18.406Z,0
2018-05-27T00:11:18.223Z,0
2018-05-27T00:12:18.426Z,0
2018-05-27T00:13:18.446Z,0
2018-05-27T00:14:18.420Z,0
2018-05-27T00:15:18.424Z,0
2018-05-27T00:16:18.416Z,0
2018-05-27T00:17:18.424Z,0
2018-05-27T00:18:18.427Z,0
2018-05-27T00:19:18.387Z,0
2018-05-27T00:20:18.395Z,0
2018-05-27T00:21:18.362Z,0
2018-05-27T00:22:18.184Z,0
2018-05-27T00:23:18.399Z,0
2018-05-27T00:24:18.421Z,0
2018-05-27T00:25:18.379Z,0
2018-05-27T00:26:17.957Z,0
2018-05-27T00:27:18.341Z,0
2018-05-27T00:28:18.375Z,0
2018-05-27T00:29:18.352Z,0
2018-05-27T00:30:18.400Z,0
2018-05-27T00:31:18.346Z,0
2018-05-27T00:32:18.109Z,0
2018-05-27T00:33:18.367Z,0
2018-05-27T00:34:18.376Z,0
2018-05-27T00:35:18.075Z,0
2018-05-27T00:36:18.114Z,0
2018-05-27T00:37:17.801Z,0
2018-05-27T00:38:18.365Z,0
2018-05-27T00:39:17.810Z,0
2018-05-27T00:40:18.104Z,0
2018-05-27T00:41:18.314Z,0
2018-05-27T00:42:18.093Z,0
2018-05-27T00:43:17.771Z,0
2018-05-27T00:44:18.064Z,0
2018-05-27T00:45:17.776Z,0
2018-05-27T00:46:18.366Z,0
2018-05-27T00:47:18.057Z,0
2018-05-27T00:48:18.045Z,0
2018-05-27T00:49:18.302Z,0
2018-05-27T00:50:18.297Z,0
2018-05-27T00:51:18.312Z,0
2018-05-27T00:52:18.032Z,0
2018-05-27T00:53:18.335Z,0
2018-05-27T00:54:17.987Z,0
2018-05-27T00:55:18.275Z,0
2018-05-27T00:56:18.269Z,0
2018-05-27T00:57:18.003Z,0
2018-05-27T00:58:18.030Z,0
2018-05-27T00:59:17.968Z,0
2018-05-27T01:00:18.259Z,0
2018-05-27T01:01:17.736Z,0
2018-05-27T01:02:18.304Z,0
2018-05-27T01:03:18.269Z,0
2018-05-27T01:04:17.736Z,0
2018-05-27T01:05:17.713Z,0
2018-05-27T01:06:17.993Z,0
2018-05-27T01:07:18.230Z,0
2018-05-27T01:08:18.215Z,0
2018-05-27T01:09:17.988Z,0
2018-05-27T01:10:18.195Z,0
2018-05-27T01:11:18.216Z,0
2018-05-27T01:12:18.172Z,0
2018-05-27T01:13:18.220Z,0
2018-05-27T01:14:17.912Z,0
2018-05-27T01:15:18.273Z,0
2018-05-27T01:16:18.188Z,0
2018-05-27T01:17:18.461Z,0
2018-05-27T01:18:17.892Z,0
2018-05-27T01:19:17.661Z,0
2018-05-27T01:20:17.658Z,0
2018-05-27T01:21:17.947Z,0
2018-05-27T01:22:18.145Z,0
2018-05-27T01:23:17.915Z,0
2018-05-27T01:24:18.177Z,0
2018-05-27T01:25:18.192Z,0
2018-05-27T01:26:18.118Z,0
2018-05-27T01:27:18.158Z,0
2018-05-27T01:28:17.851Z,0
2018-05-27T01:29:18.159Z,0
2018-05-27T01:30:17.904Z,0
2018-05-27T01:31:18.172Z,0
2018-05-27T01:32:17.886Z,0
2018-05-27T01:33:17.888Z,0
2018-05-27T01:34:17.835Z,0
2018-05-27T01:35:17.601Z,0
2018-05-27T01:36:17.593Z,0
2018-05-27T01:37:18.127Z,0
2018-05-27T01:38:18.127Z,0
2018-05-27T01:39:18.096Z,0
2018-05-27T01:40:18.097Z,0
2018-05-27T01:41:18.073Z,0
2018-05-27T01:42:18.109Z,0
2018-05-27T01:43:18.086Z,0
2018-05-27T01:44:17.867Z,0
2018-05-27T01:45:17.815Z,0
2018-05-27T01:46:17.324Z,0
2018-05-27T01:47:17.544Z,0
2018-05-27T01:48:18.316Z,0
2018-05-27T01:49:17.562Z,0
2018-05-27T01:50:18.022Z,0
2018-05-27T01:51:18.046Z,0
2018-05-27T01:52:18.044Z,0
2018-05-27T01:53:17.810Z,0
2018-05-27T01:54:18.064Z,0
2018-05-27T01:55:17.769Z,0
2018-05-27T01:56:17.769Z,0
2018-05-27T01:57:17.744Z,0
2018-05-27T01:58:17.791Z,0
2018-05-27T01:59:18.005Z,0
2018-05-27T02:00:18.051Z,0
2018-05-27T02:01:17.738Z,0
2018-05-27T02:02:18.036Z,0
2018-05-27T02:03:17.465Z,0
2018-05-27T02:04:17.991Z,0
2018-05-27T02:05:17.717Z,0
2018-05-27T02:06:18.025Z,0
2018-05-27T02:07:17.989Z,0
2018-05-27T02:08:17.718Z,0
2018-05-27T02:09:17.947Z,0
2018-05-27T02:10:17.951Z,0
2018-05-27T02:11:17.710Z,0
2018-05-27T02:12:17.699Z,0
2018-05-27T02:13:17.940Z,0
2018-05-27T02:14:17.452Z,0
2018-05-27T02:15:17.674Z,0
2018-05-27T02:16:17.706Z,0
2018-05-27T02:17:17.404Z,0
2018-05-27T02:18:17.687Z,0
2018-05-27T02:19:18.143Z,0
2018-05-27T02:20:17.400Z,0
2018-05-27T02:21:17.654Z,0
2018-05-27T02:22:17.679Z,0
2018-05-27T02:23:17.649Z,0
2018-05-27T02:24:17.650Z,0
2018-05-27T02:25:17.620Z,0
2018-05-27T02:26:17.348Z,0
2018-05-27T02:27:17.893Z,0
2018-05-27T02:28:17.887Z,0
2018-05-27T02:29:17.648Z,0
2018-05-27T02:30:17.337Z,0
2018-05-27T02:31:17.363Z,0
2018-05-27T02:32:17.832Z,0
2018-05-27T02:33:17.634Z,0
2018-05-27T02:34:17.576Z,0
2018-05-27T02:35:17.621Z,0
2018-05-27T02:36:17.839Z,0
2018-05-27T02:37:17.593Z,0
2018-05-27T02:38:17.555Z,0
2018-05-27T02:39:17.837Z,0
2018-05-27T02:40:17.820Z,0
2018-05-27T02:41:17.799Z,0
2018-05-27T02:42:17.783Z,0
2018-05-27T02:43:17.817Z,0
2018-05-27T02:44:17.803Z,5
2018-05-27T02:45:17.577Z,5
2018-05-27T02:46:17.522Z,5
2018-05-27T02:47:17.798Z,5
2018-05-27T02:48:17.496Z,5
2018-05-27T02:49:17.785Z,5
2018-05-27T02:50:18.005Z,5
2018-05-27T02:51:17.811Z,5
2018-05-27T02:52:17.753Z,5
2018-05-27T02:53:17.508Z,10
2018-05-27T02:54:17.725Z,10
2018-05-27T02:55:17.722Z,10
2018-05-27T02:56:17.736Z,10
2018-05-27T02:57:17.755Z,10
2018-05-27T02:58:17.751Z,10
2018-05-27T02:59:17.709Z,10
2018-05-27T03:00:17.717Z,15
2018-05-27T03:01:17.680Z,15
2018-05-27T03:02:17.739Z,15
2018-05-27T03:03:17.691Z,15
2018-05-27T03:04:17.693Z,15
2018-05-27T03:05:17.708Z,20
2018-05-27T03:06:17.147Z,20
2018-05-27T03:07:17.723Z,20
2018-05-27T03:08:17.158Z,20
2018-05-27T03:09:17.441Z,25
2018-05-27T03:10:17.387Z,25
2018-05-27T03:11:17.440Z,25
2018-05-27T03:12:17.395Z,25
2018-05-27T03:13:17.156Z,30
2018-05-27T03:14:17.672Z,30
2018-05-27T03:15:17.633Z,30
2018-05-27T03:16:17.119Z,35
2018-05-27T03:17:17.655Z,35
2018-05-27T03:18:17.350Z,35
2018-05-27T03:19:17.637Z,40
2018-05-27T03:20:17.334Z,40
2018-05-27T03:21:17.622Z,40
2018-05-27T03:22:17.327Z,45
2018-05-27T03:23:17.626Z,45
2018-05-27T03:24:17.587Z,50
2018-05-27T03:25:17.602Z,50
2018-05-27T03:26:17.048Z,50
2018-05-27T03:27:17.312Z,55
2018-05-27T03:28:17.562Z,55
2018-05-27T03:29:17.575Z,60
2018-05-27T03:30:17.549Z,60
2018-05-27T03:31:17.591Z,65
2018-05-27T03:32:17.543Z,70
2018-05-27T03:33:17.311Z,70
2018-05-27T03:34:17.512Z,75
2018-05-27T03:35:17.540Z,75
2018-05-27T03:36:17.249Z,80
2018-05-27T03:37:17.550Z,85
2018-05-27T03:38:17.492Z,85
2018-05-27T03:39:17.287Z,85
2018-05-27T03:40:16.991Z,95
2018-05-27T03:41:17.000Z,95
2018-05-27T03:42:16.955Z,95
2018-05-27T03:43:17.481Z,95
2018-05-27T03:44:17.227Z,100
2018-05-27T03:45:17.501Z,105
2018-05-27T03:46:17.504Z,110
2018-05-27T03:47:17.455Z,135
2018-05-27T03:48:17.203Z,140
2018-05-27T03:49:17.476Z,145
2018-05-27T03:50:17.489Z,150
2018-05-27T03:51:17.184Z,155
2018-05-27T03:52:17.737Z,160
2018-05-27T03:53:17.177Z,165
2018-05-27T03:54:17.210Z,165
2018-05-27T03:55:16.912Z,170
2018-05-27T03:56:16.918Z,170
2018-05-27T03:57:17.446Z,180
2018-05-27T03:58:17.384Z,185
2018-05-27T03:59:17.397Z,195
2018-05-27T04:00:17.160Z,195
2018-05-27T04:01:17.428Z,200
2018-05-27T04:02:17.434Z,210
2018-05-27T04:03:17.124Z,215
2018-05-27T04:04:16.629Z,215
2018-05-27T04:05:17.357Z,215
2018-05-27T04:06:17.215Z,220
2018-05-27T04:07:17.381Z,225
2018-05-27T04:08:17.417Z,230
2018-05-27T04:09:17.113Z,230
2018-05-27T04:10:17.145Z,235
2018-05-27T04:11:17.089Z,240
2018-05-27T04:12:17.120Z,245
2018-05-27T04:13:17.104Z,255
2018-05-27T04:14:16.881Z,260
2018-05-27T04:15:17.380Z,265
2018-05-27T04:16:17.356Z,275
2018-05-27T04:17:17.094Z,285
2018-05-27T04:18:17.330Z,295
2018-05-27T04:19:17.364Z,300
2018-05-27T04:20:17.357Z,305
2018-05-27T04:21:17.080Z,310
2018-05-27T04:22:16.857Z,315
2018-05-27T04:23:17.331Z,320
2018-05-27T04:24:17.627Z,325
2018-05-27T04:25:17.331Z,335
2018-05-27T04:26:17.363Z,350
2018-05-27T04:27:17.304Z,355
2018-05-27T04:28:17.127Z,360
2018-05-27T04:29:16.807Z,370
2018-05-27T04:30:16.851Z,380
2018-05-27T04:31:17.095Z,380
2018-05-27T04:32:16.827Z,390
2018-05-27T04:33:17.317Z,395
2018-05-27T04:34:17.309Z,405
2018-05-27T04:35:17.348Z,415
2018-05-27T04:36:17.079Z,430
2018-05-27T04:37:17.363Z,440
2018-05-27T04:38:17.303Z,460
2018-05-27T04:39:17.347Z,475
2018-05-27T04:40:17.299Z,480
2018-05-27T04:41:17.351Z,475
2018-05-27T04:42:17.058Z,475
2018-05-27T04:43:17.366Z,480
2018-05-27T04:44:17.331Z,490
2018-05-27T04:45:17.353Z,505
2018-05-27T04:46:17.317Z,515
2018-05-27T04:47:17.406Z,525
2018-05-27T04:48:17.356Z,530
2018-05-27T04:49:17.074Z,535
2018-05-27T04:50:17.330Z,535
2018-05-27T04:51:17.357Z,535
2018-05-27T04:52:17.353Z,535
2018-05-27T04:53:17.395Z,545
2018-05-27T04:54:17.583Z,555
2018-05-27T04:55:17.118Z,570
2018-05-27T04:56:17.337Z,580
2018-05-27T04:57:17.393Z,590
2018-05-27T04:58:17.347Z,595
2018-05-27T04:59:17.211Z,595
2018-05-27T05:00:16.875Z,595
2018-05-27T05:01:16.867Z,595
2018-05-27T05:02:17.420Z,600
2018-05-27T05:03:17.408Z,605
2018-05-27T05:04:17.403Z,615
2018-05-27T05:05:17.127Z,625
2018-05-27T05:06:16.889Z,620
2018-05-27T05:07:17.426Z,620
2018-05-27T05:08:17.418Z,620
2018-05-27T05:09:17.194Z,640
2018-05-27T05:10:17.399Z,645
2018-05-27T05:11:17.442Z,655
2018-05-27T05:12:17.455Z,675
2018-05-27T05:13:17.426Z,695
2018-05-27T05:14:16.958Z,705
2018-05-27T05:15:17.427Z,715
2018-05-27T05:16:17.204Z,725
2018-05-27T05:17:17.448Z,730
2018-05-27T05:18:17.513Z,725
2018-05-27T05:19:17.259Z,730
2018-05-27T05:20:17.496Z,730
2018-05-27T05:21:17.222Z,740
2018-05-27T05:22:17.380Z,745
2018-05-27T05:23:17.515Z,775
2018-05-27T05:24:17.610Z,800
2018-05-27T05:25:17.804Z,805
2018-05-27T05:26:17.522Z,845
2018-05-27T05:27:17.554Z,855
2018-05-27T05:28:17.522Z,870
2018-05-27T05:29:17.307Z,895
2018-05-27T05:30:17.021Z,890
2018-05-27T05:31:17.088Z,900
2018-05-27T05:32:17.573Z,900
2018-05-27T05:33:17.595Z,910
2018-05-27T05:34:17.551Z,915
2018-05-27T05:35:17.067Z,920
2018-05-27T05:36:17.348Z,935
2018-05-27T05:37:17.363Z,945
2018-05-27T05:38:17.588Z,960
2018-05-27T05:39:17.376Z,975
2018-05-27T05:40:17.651Z,980
2018-05-27T05:41:17.668Z,980
2018-05-27T05:42:17.363Z,980
2018-05-27T05:43:17.667Z,980
2018-05-27T05:44:17.629Z,985
2018-05-27T05:45:17.693Z,995
2018-05-27T05:46:17.664Z,1000
2018-05-27T05:47:17.456Z,1015
2018-05-27T05:48:17.438Z,1015
2018-05-27T05:49:17.868Z,1035
2018-05-27T05:50:17.680Z,1065
2018-05-27T05:51:17.702Z,1075
2018-05-27T05:52:17.744Z,1100
2018-05-27T05:53:17.494Z,1125
2018-05-27T05:54:17.508Z,1130
2018-05-27T05:55:17.238Z,1140
2018-05-27T05:56:17.242Z,1135
2018-05-27T05:57:18.011Z,1150
2018-05-27T05:58:17.804Z,1170
2018-05-27T05:59:17.786Z,1185
2018-05-27T06:00:17.837Z,1185
2018-05-27T06:01:18.056Z,1195
2018-05-27T06:02:17.597Z,1195
2018-05-27T06:03:17.564Z,1195
2018-05-27T06:04:17.578Z,1205
2018-05-27T06:05:17.608Z,1220
2018-05-27T06:06:17.315Z,1235
2018-05-27T06:07:17.855Z,1245
2018-05-27T06:08:17.878Z,1255
2018-05-27T06:09:17.649Z,1280
2018-05-27T06:10:17.668Z,1285
2018-05-27T06:11:17.895Z,1290
2018-05-27T06:12:17.918Z,1310
2018-05-27T06:13:17.898Z,1335
2018-05-27T06:14:17.962Z,1350
2018-05-27T06:15:17.933Z,1350
2018-05-27T06:16:17.728Z,1360
2018-05-27T06:17:17.959Z,1360
2018-05-27T06:18:18.012Z,1350
2018-05-27T06:19:17.961Z,1345
2018-05-27T06:20:18.012Z,1355
2018-05-27T06:21:18.007Z,1370
2018-05-27T06:22:18.051Z,1395
2018-05-27T06:23:17.539Z,1420
2018-05-27T06:24:17.533Z,1425
2018-05-27T06:25:17.282Z,1445
2018-05-27T06:26:18.045Z,1455
2018-05-27T06:27:18.084Z,1460
2018-05-27T06:28:18.089Z,1480
2018-05-27T06:29:18.089Z,1490
2018-05-27T06:30:18.156Z,1515
2018-05-27T06:31:17.871Z,1525
2018-05-27T06:32:18.103Z,1545
2018-05-27T06:33:18.144Z,1550
2018-05-27T06:34:18.202Z,1550
2018-05-27T06:35:17.643Z,1545
2018-05-27T06:36:18.196Z,1545
2018-05-27T06:37:18.192Z,1580
2018-05-27T06:38:18.263Z,1585
2018-05-27T06:39:18.252Z,1605
2018-05-27T06:40:18.259Z,1615
2018-05-27T06:41:18.249Z,1625
2018-05-27T06:42:18.317Z,1640
2018-05-27T06:43:18.034Z,1655
2018-05-27T06:44:18.041Z,1655
2018-05-27T06:45:17.789Z,1670
2018-05-27T06:46:18.363Z,1690
2018-05-27T06:47:17.821Z,1700
2018-05-27T06:48:19.655Z,1735
2018-05-27T06:49:18.388Z,1740
2018-05-27T06:50:18.413Z,1745
2018-05-27T06:51:18.485Z,1760
2018-05-27T06:52:18.413Z,1780
2018-05-27T06:53:18.438Z,1795
2018-05-27T06:54:18.225Z,1800
2018-05-27T06:55:18.191Z,1805
2018-05-27T06:56:18.244Z,1810
2018-05-27T06:57:18.501Z,1830
2018-05-27T06:58:18.340Z,1845
2018-05-27T06:59:18.248Z,1865
2018-05-27T07:00:18.035Z,1880
2018-05-27T07:01:18.524Z,1895
2018-05-27T07:02:19.801Z,1900
2018-05-27T07:03:18.322Z,1900
2018-05-27T07:04:18.632Z,1930
2018-05-27T07:05:18.385Z,1940
2018-05-27T07:06:18.641Z,1970
2018-05-27T07:07:18.639Z,1985
2018-05-27T07:08:18.131Z,1995
2018-05-27T07:09:18.699Z,2015
2018-05-27T07:10:18.698Z,2035
2018-05-27T07:11:18.230Z,2055
2018-05-27T07:12:18.510Z,2050
2018-05-27T07:13:18.507Z,2065
2018-05-27T07:14:18.489Z,2060
2018-05-27T07:15:18.284Z,2080
2018-05-27T07:16:18.777Z,2085
2018-05-27T07:17:18.906Z,2085
2018-05-27T07:18:18.590Z,2065
2018-05-27T07:19:18.608Z,2045
2018-05-27T07:20:18.849Z,2015
2018-05-27T07:21:18.897Z,1945
2018-05-27T07:22:18.647Z,1900
2018-05-27T07:23:18.902Z,1910
2018-05-27T07:24:18.918Z,1935
2018-05-27T07:25:18.447Z,1960
2018-05-27T07:26:18.722Z,1960
2018-05-27T07:27:18.766Z,1975
2018-05-27T07:28:19.191Z,1975
2018-05-27T07:29:19.036Z,1980
2018-05-27T07:30:19.275Z,1975
2018-05-27T07:31:19.081Z,1975
2018-05-27T07:32:19.385Z,1995
2018-05-27T07:33:19.132Z,2010
2018-05-27T07:34:18.853Z,2030
2018-05-27T07:35:18.886Z,2070
2018-05-27T07:36:18.866Z,2110
2018-05-27T07:37:19.154Z,2145
2018-05-27T07:38:19.185Z,2160
2018-05-27T07:39:19.258Z,2160
2018-05-27T07:40:18.991Z,2110
2018-05-27T07:41:19.233Z,1995
2018-05-27T07:42:19.002Z,1900
2018-05-27T07:43:19.247Z,1890
2018-05-27T07:44:18.806Z,1910
2018-05-27T07:45:19.313Z,1930
2018-05-27T07:46:19.327Z,1940
2018-05-27T07:47:19.363Z,1950
2018-05-27T07:48:19.084Z,1955
2018-05-27T07:49:19.410Z,1990
2018-05-27T07:50:19.139Z,2025
2018-05-27T07:51:19.171Z,2080
2018-05-27T07:52:19.185Z,2120
2018-05-27T07:53:19.473Z,2200
2018-05-27T07:54:19.464Z,2260
2018-05-27T07:55:19.497Z,2290
2018-05-27T07:56:19.530Z,2300
2018-05-27T07:57:19.510Z,2260
2018-05-27T07:58:19.534Z,2235
2018-05-27T07:59:19.528Z,2175
2018-05-27T08:00:19.338Z,2135
2018-05-27T08:01:19.576Z,2290
2018-05-27T08:02:19.637Z,2600
2018-05-27T08:03:19.607Z,2810
2018-05-27T08:04:19.409Z,2860
2018-05-27T08:05:19.627Z,2940
2018-05-27T08:06:19.687Z,2915
2018-05-27T08:07:19.944Z,2935
2018-05-27T08:08:19.756Z,2900
2018-05-27T08:09:19.506Z,2885
2018-05-27T08:10:19.258Z,2880
2018-05-27T08:11:19.753Z,2875
2018-05-27T08:12:19.825Z,2850
2018-05-27T08:13:19.796Z,2825
2018-05-27T08:14:19.321Z,2820
2018-05-27T08:15:19.825Z,2625
2018-05-27T08:16:19.636Z,2205
2018-05-27T08:17:19.621Z,1980
2018-05-27T08:18:19.675Z,1970
2018-05-27T08:19:19.907Z,1965
2018-05-27T08:20:19.200Z,1980
2018-05-27T08:21:19.931Z,1990
2018-05-27T08:22:19.984Z,1995
2018-05-27T08:23:19.730Z,1990
2018-05-27T08:24:20.054Z,2000
2018-05-27T08:25:19.533Z,1980
2018-05-27T08:26:20.088Z,1980
2018-05-27T08:27:20.062Z,1975
2018-05-27T08:28:19.557Z,1955
2018-05-27T08:29:20.123Z,1960
2018-05-27T08:30:20.126Z,1960
2018-05-27T08:31:20.198Z,1975
2018-05-27T08:32:20.134Z,1985
2018-05-27T08:33:20.395Z,1980
2018-05-27T08:34:20.165Z,1990
2018-05-27T08:35:19.726Z,1990
2018-05-27T08:36:19.953Z,2010
2018-05-27T08:37:20.009Z,2005
2018-05-27T08:38:19.767Z,2010
2018-05-27T08:39:20.014Z,1995
2018-05-27T08:40:20.336Z,2000
2018-05-27T08:41:20.330Z,1975
2018-05-27T08:42:20.357Z,1950
2018-05-27T08:43:20.079Z,1915
2018-05-27T08:44:20.352Z,1890
2018-05-27T08:45:20.145Z,1895
2018-05-27T08:46:20.151Z,1900
2018-05-27T08:47:20.200Z,1925
2018-05-27T08:48:20.413Z,1920
2018-05-27T08:49:20.217Z,1505
2018-05-27T08:50:19.938Z,785
2018-05-27T08:51:19.987Z,500
2018-05-27T08:52:20.220Z,490
2018-05-27T08:53:20.633Z,485
2018-05-27T08:54:20.014Z,485
2018-05-27T08:55:20.301Z,485
2018-05-27T08:56:20.274Z,480
2018-05-27T08:57:20.782Z,485
2018-05-27T08:58:20.594Z,480
2018-05-27T08:59:20.617Z,480
2018-05-27T09:00:20.134Z,480
2018-05-27T09:01:21.422Z,480
2018-05-27T09:02:20.641Z,480
2018-05-27T09:03:20.663Z,480
2018-05-27T09:04:20.629Z,480
2018-05-27T09:05:20.690Z,480
2018-05-27T09:06:20.395Z,480
2018-05-27T09:07:20.741Z,480
2018-05-27T09:08:20.413Z,490
2018-05-27T09:09:20.738Z,485
2018-05-27T09:10:20.711Z,485
2018-05-27T09:11:20.486Z,485
2018-05-27T09:12:20.444Z,485
2018-05-27T09:13:20.734Z,485
2018-05-27T09:14:20.489Z,485
2018-05-27T09:15:21.716Z,480
2018-05-27T09:16:20.289Z,485
2018-05-27T09:17:20.503Z,480
2018-05-27T09:18:20.524Z,480
2018-05-27T09:19:20.770Z,480
2018-05-27T09:20:20.843Z,480
2018-05-27T09:21:20.813Z,480
2018-05-27T09:22:20.860Z,475
2018-05-27T09:23:20.804Z,475
2018-05-27T09:24:20.597Z,475
2018-05-27T09:25:20.553Z,475
2018-05-27T09:26:20.853Z,475
2018-05-27T09:27:20.333Z,480
2018-05-27T09:28:20.641Z,475
2018-05-27T09:29:20.876Z,470
2018-05-27T09:30:20.364Z,475
2018-05-27T09:31:20.657Z,465
2018-05-27T09:32:20.926Z,465
2018-05-27T09:33:20.662Z,465
2018-05-27T09:34:21.152Z,460
2018-05-27T09:35:20.369Z,460
2018-05-27T09:36:20.696Z,460
2018-05-27T09:37:20.913Z,455
2018-05-27T09:38:20.969Z,455
2018-05-27T09:39:20.877Z,450
2018-05-27T09:40:20.963Z,450
2018-05-27T09:41:20.918Z,450
2018-05-27T09:42:20.455Z,455
2018-05-27T09:43:20.940Z,455
2018-05-27T09:44:21.000Z,450
2018-05-27T09:45:21.172Z,450
2018-05-27T09:46:20.721Z,445
2018-05-27T09:47:20.985Z,445
2018-05-27T09:48:20.989Z,445
2018-05-27T09:49:21.003Z,445
2018-05-27T09:50:20.995Z,440
2018-05-27T09:51:20.866Z,440
2018-05-27T09:52:20.984Z,440
2018-05-27T09:53:21.025Z,440
2018-05-27T09:54:21.061Z,440
2018-05-27T09:55:20.766Z,435
2018-05-27T09:56:21.066Z,435
2018-05-27T09:57:21.005Z,435
2018-05-27T09:58:20.968Z,430
2018-05-27T09:59:21.057Z,430
2018-05-27T10:00:20.835Z,430
2018-05-27T10:01:20.809Z,425
2018-05-27T10:02:20.815Z,425
2018-05-27T10:03:20.787Z,420
2018-05-27T10:04:20.799Z,420
2018-05-27T10:05:21.350Z,415
2018-05-27T10:06:21.083Z,415
2018-05-27T10:07:21.077Z,415
2018-05-27T10:08:20.917Z,415
2018-05-27T10:09:21.092Z,415
2018-05-27T10:10:21.151Z,415
2018-05-27T10:11:20.580Z,415
2018-05-27T10:12:21.156Z,415
2018-05-27T10:13:20.841Z,415
2018-05-27T10:14:20.615Z,415
2018-05-27T10:15:21.119Z,410
2018-05-27T10:16:21.176Z,410
2018-05-27T10:17:21.175Z,415
2018-05-27T10:18:21.157Z,410
2018-05-27T10:19:20.876Z,405
2018-05-27T10:20:21.182Z,405
2018-05-27T10:21:21.153Z,405
2018-05-27T10:22:21.178Z,405
2018-05-27T10:23:21.163Z,405
2018-05-27T10:24:21.205Z,400
2018-05-27T10:25:21.186Z,400
2018-05-27T10:26:21.222Z,400
2018-05-27T10:27:21.185Z,400
2018-05-27T10:28:21.278Z,395
2018-05-27T10:29:20.935Z,395
2018-05-27T10:30:21.211Z,395
2018-05-27T10:31:21.212Z,395
2018-05-27T10:32:20.986Z,395
2018-05-27T10:33:20.979Z,395
2018-05-27T10:34:20.983Z,390
2018-05-27T10:35:21.215Z,390
2018-05-27T10:36:20.965Z,390
2018-05-27T10:37:21.510Z,390
2018-05-27T10:38:21.267Z,390
2018-05-27T10:39:21.351Z,390
2018-05-27T10:40:20.978Z,390
2018-05-27T10:41:21.278Z,395
2018-05-27T10:42:20.988Z,395
2018-05-27T10:43:21.051Z,395
2018-05-27T10:44:21.014Z,400
2018-05-27T10:45:21.046Z,400
2018-05-27T10:46:21.285Z,405
2018-05-27T10:47:20.817Z,405
2018-05-27T10:48:21.347Z,410
2018-05-27T10:49:20.843Z,415
2018-05-27T10:50:21.319Z,420
2018-05-27T10:51:21.301Z,425
2018-05-27T10:52:21.339Z,425
2018-05-27T10:53:21.405Z,430
2018-05-27T10:54:21.336Z,430
2018-05-27T10:55:21.380Z,430
2018-05-27T10:56:21.062Z,435
2018-05-27T10:57:21.371Z,435
2018-05-27T10:58:21.070Z,440
2018-05-27T10:59:21.385Z,445
2018-05-27T11:00:21.347Z,450
2018-05-27T11:01:21.149Z,455
2018-05-27T11:02:21.085Z,455
2018-05-27T11:03:21.645Z,455
2018-05-27T11:04:21.355Z,450
2018-05-27T11:05:21.133Z,450
2018-05-27T11:06:20.885Z,455
2018-05-27T11:07:21.423Z,450
2018-05-27T11:08:21.440Z,445
2018-05-27T11:09:21.413Z,440
2018-05-27T11:10:21.169Z,435
2018-05-27T11:11:21.442Z,435
2018-05-27T11:12:21.661Z,435
2018-05-27T11:13:21.193Z,430
2018-05-27T11:14:20.927Z,435
2018-05-27T11:15:20.964Z,435
2018-05-27T11:16:21.192Z,440
2018-05-27T11:17:21.236Z,445
2018-05-27T11:18:21.218Z,435
2018-05-27T11:19:21.495Z,390
2018-05-27T11:20:21.219Z,390
2018-05-27T11:21:21.220Z,405
2018-05-27T11:22:21.245Z,455
2018-05-27T11:23:21.516Z,470
2018-05-27T11:24:21.528Z,480
2018-05-27T11:25:21.507Z,490
2018-05-27T11:26:21.517Z,515
2018-05-27T11:27:21.513Z,535
2018-05-27T11:28:21.566Z,585
2018-05-27T11:29:21.272Z,625
2018-05-27T11:30:21.323Z,625
2018-05-27T11:31:21.290Z,625
2018-05-27T11:32:21.590Z,640
2018-05-27T11:33:21.297Z,640
2018-05-27T11:34:21.578Z,610
2018-05-27T11:35:21.560Z,545
2018-05-27T11:36:21.356Z,485
2018-05-27T11:37:21.336Z,435
2018-05-27T11:38:21.635Z,405
2018-05-27T11:39:21.367Z,380
2018-05-27T11:40:21.411Z,370
2018-05-27T11:41:21.113Z,370
2018-05-27T11:42:21.139Z,355
2018-05-27T11:43:21.605Z,340
2018-05-27T11:44:21.677Z,330
2018-05-27T11:45:21.684Z,315
2018-05-27T11:46:21.710Z,305
2018-05-27T11:47:21.667Z,300
2018-05-27T11:48:21.435Z,290
2018-05-27T11:49:21.673Z,275
2018-05-27T11:50:21.681Z,265
2018-05-27T11:51:21.715Z,265
2018-05-27T11:52:21.676Z,260
2018-05-27T11:53:21.443Z,255
2018-05-27T11:54:21.586Z,250
2018-05-27T11:55:21.239Z,245
2018-05-27T11:56:21.513Z,255
2018-05-27T11:57:21.719Z,260
2018-05-27T11:58:21.742Z,280
2018-05-27T11:59:21.722Z,295
2018-05-27T12:00:21.775Z,310
2018-05-27T12:01:21.228Z,325
2018-05-27T12:02:21.511Z,345
2018-05-27T12:03:21.528Z,375
2018-05-27T12:04:21.266Z,395
2018-05-27T12:05:21.817Z,420
2018-05-27T12:06:21.540Z,435
2018-05-27T12:07:21.827Z,465
2018-05-27T12:08:21.765Z,505
2018-05-27T12:09:22.656Z,545
2018-05-27T12:10:21.820Z,575
2018-05-27T12:11:21.585Z,630
2018-05-27T12:12:21.861Z,685
2018-05-27T12:13:21.600Z,720
2018-05-27T12:14:21.833Z,720
2018-05-27T12:15:21.810Z,700
2018-05-27T12:16:21.883Z,685
2018-05-27T12:17:21.846Z,680
2018-05-27T12:18:21.916Z,685
2018-05-27T12:19:21.844Z,660
2018-05-27T12:20:21.903Z,645
2018-05-27T12:21:21.816Z,655
2018-05-27T12:22:21.896Z,655
2018-05-27T12:23:21.625Z,610
2018-05-27T12:24:21.953Z,570
2018-05-27T12:25:21.922Z,545
2018-05-27T12:26:21.662Z,535
2018-05-27T12:27:21.922Z,530
2018-05-27T12:28:21.706Z,535
2018-05-27T12:29:21.677Z,540
2018-05-27T12:30:21.970Z,550
2018-05-27T12:31:21.417Z,560
2018-05-27T12:32:21.988Z,565
2018-05-27T12:33:21.974Z,560
2018-05-27T12:34:21.750Z,555
2018-05-27T12:35:21.709Z,545
2018-05-27T12:36:22.038Z,555
2018-05-27T12:37:21.965Z,540
2018-05-27T12:38:21.759Z,530
2018-05-27T12:39:22.012Z,500
2018-05-27T12:40:22.057Z,470
2018-05-27T12:41:22.038Z,420
2018-05-27T12:42:22.092Z,385
2018-05-27T12:43:21.766Z,345
2018-05-27T12:44:22.040Z,295
2018-05-27T12:45:21.549Z,250
2018-05-27T12:46:21.833Z,215
2018-05-27T12:47:22.093Z,190
2018-05-27T12:48:22.053Z,175
2018-05-27T12:49:22.110Z,155
2018-05-27T12:50:21.826Z,145
2018-05-27T12:51:22.184Z,140
2018-05-27T12:52:22.084Z,140
2018-05-27T12:53:21.610Z,140
2018-05-27T12:54:21.608Z,145
2018-05-27T12:55:21.855Z,155
2018-05-27T12:56:22.176Z,165
2018-05-27T12:57:21.898Z,175
2018-05-27T12:58:22.162Z,200
2018-05-27T12:59:21.635Z,220
2018-05-27T13:00:21.626Z,255
2018-05-27T13:01:22.190Z,290
2018-05-27T13:02:21.901Z,325
2018-05-27T13:03:21.936Z,355
2018-05-27T13:04:22.144Z,380
2018-05-27T13:05:22.204Z,405
2018-05-27T13:06:22.174Z,435
2018-05-27T13:07:21.977Z,465
2018-05-27T13:08:22.176Z,500
2018-05-27T13:09:22.232Z,520
2018-05-27T13:10:22.187Z,545
2018-05-27T13:11:22.218Z,550
2018-05-27T13:12:22.169Z,560
2018-05-27T13:13:22.203Z,560
2018-05-27T13:14:22.198Z,575
2018-05-27T13:15:22.223Z,620
2018-05-27T13:16:22.738Z,680
2018-05-27T13:17:21.960Z,685
2018-05-27T13:18:21.948Z,690
2018-05-27T13:19:22.242Z,695
2018-05-27T13:20:21.934Z,665
2018-05-27T13:21:22.233Z,645
2018-05-27T13:22:22.216Z,620
2018-05-27T13:23:22.249Z,625
2018-05-27T13:24:21.966Z,630
2018-05-27T13:25:21.990Z,635
2018-05-27T13:54:21.966Z,655
2018-05-27T13:55:22.593Z,655
2018-05-27T13:56:21.937Z,625
2018-05-27T13:57:21.971Z,585
2018-05-27T13:58:21.994Z,550
2018-05-27T13:59:24.794Z,530
2018-05-27T14:00:22.526Z,510
2018-05-27T14:02:23.243Z,500
2018-05-27T14:03:23.480Z,495
2018-05-27T14:05:24.765Z,495
2018-05-27T14:06:24.936Z,500
2018-05-27T14:07:22.274Z,510
2018-05-27T14:08:22.221Z,510
2018-05-27T14:09:22.281Z,515
2018-05-27T14:10:22.540Z,525
2018-05-27T14:11:22.341Z,525
2018-05-27T14:12:22.258Z,520
2018-05-27T14:13:22.287Z,515
2018-05-27T14:14:22.260Z,515
2018-05-27T14:15:22.270Z,525
2018-05-27T14:16:22.065Z,535
2018-05-27T14:17:22.526Z,530
2018-05-27T14:18:22.317Z,525
2018-05-27T14:19:22.284Z,520
2018-05-27T14:20:22.307Z,520
2018-05-27T14:21:22.070Z,530
2018-05-27T14:22:22.034Z,520
2018-05-27T14:23:22.291Z,510